Time;durP1;ratioP1;P1;durP2;ratioP2;P2;SDS_P1;SDS_P2;PMS_P1;PMS_P2;Temp;Humidity;BMP_temperature;BMP_pressure;BME280_temperature;BME280_humidity;BME280_pressure;Samples;Min_cycle;Max_cycle;Signal;HPM_P1;HPM_P2
2021/05/14 00:01:37;;;;;;;5.75;3.55;;;22.90;46.70;;;;;;5038630;28;20090;-63
2021/05/14 00:04:03;;;;;;;4.95;3.67;;;22.90;46.70;;;;;;5045938;28;20036;-60
2021/05/14 00:06:29;;;;;;;5.60;3.70;;;22.90;46.70;;;;;;5047128;28;20032;-62
2021/05/14 00:08:54;;;;;;;6.47;3.95;;;22.90;46.60;;;;;;5046802;28;20033;-60
2021/05/14 00:11:20;;;;;;;5.50;3.50;;;22.90;46.60;;;;;;5042742;28;20043;-62
2021/05/14 00:13:46;;;;;;;5.53;3.53;;;22.90;46.70;;;;;;5045677;28;20569;-63
2021/05/14 00:16:11;;;;;;;5.60;3.60;;;22.90;46.70;;;;;;5042620;28;20560;-60
2021/05/14 00:18:37;;;;;;;4.93;3.60;;;22.90;46.70;;;;;;5046839;28;20099;-60
2021/05/14 00:21:03;;;;;;;4.95;3.33;;;22.90;46.70;;;;;;5041913;28;20033;-61
2021/05/14 00:23:29;;;;;;;5.55;3.58;;;22.80;46.60;;;;;;5026195;28;20032;-63
2021/05/14 00:25:54;;;;;;;5.13;3.63;;;22.90;46.70;;;;;;5030211;28;20492;-61
2021/05/14 00:28:20;;;;;;;5.72;3.60;;;22.90;46.60;;;;;;5047886;28;20036;-62
2021/05/14 00:30:46;;;;;;;5.28;3.22;;;22.90;46.60;;;;;;5049395;28;20811;-62
2021/05/14 00:33:12;;;;;;;5.00;3.25;;;22.80;46.50;;;;;;5049733;28;20466;-60
2021/05/14 00:35:38;;;;;;;4.90;3.33;;;22.90;46.60;;;;;;5047566;28;20052;-60
2021/05/14 00:38:03;;;;;;;5.57;3.70;;;22.90;46.60;;;;;;5051625;28;20033;-60
2021/05/14 00:40:29;;;;;;;4.88;3.28;;;22.80;46.60;;;;;;5049032;28;20056;-62
2021/05/14 00:42:55;;;;;;;4.78;3.47;;;22.80;46.50;;;;;;5038766;28;20045;-60
2021/05/14 00:45:20;;;;;;;4.60;3.22;;;22.80;46.50;;;;;;5030459;28;20037;-62
2021/05/14 00:47:46;;;;;;;6.13;3.40;;;22.80;46.50;;;;;;5030188;28;20037;-62
2021/05/14 00:50:12;;;;;;;5.20;3.35;;;22.80;46.50;;;;;;5049584;28;20032;-63
2021/05/14 00:52:37;;;;;;;5.47;3.30;;;22.80;46.50;;;;;;5050137;28;20063;-61
2021/05/14 00:55:05;;;;;;;5.15;3.40;;;22.80;46.50;;;;;;5045297;28;20063;-60
2021/05/14 00:57:32;;;;;;;4.07;2.90;;;22.80;46.50;;;;;;5033277;28;20029;-61
2021/05/14 00:59:58;;;;;;;5.15;3.00;;;22.80;46.50;;;;;;5031349;28;20029;-60
2021/05/14 01:02:23;;;;;;;5.30;3.38;;;22.80;46.50;;;;;;5030273;28;20463;-61
2021/05/14 01:04:49;;;;;;;5.13;3.10;;;22.80;46.50;;;;;;5029768;28;20040;-59
2021/05/14 01:07:15;;;;;;;5.35;3.40;;;22.80;46.50;;;;;;5045011;28;20017;-62
2021/05/14 01:09:42;;;;;;;5.40;3.25;;;22.80;46.50;;;;;;5049674;28;20526;-61
2021/05/14 01:12:09;;;;;;;4.72;3.17;;;22.80;46.50;;;;;;5042532;28;20025;-61
2021/05/14 01:14:35;;;;;;;6.03;3.13;;;22.80;46.50;;;;;;5042459;28;20029;-60
2021/05/14 01:17:01;;;;;;;4.72;3.05;;;22.80;46.50;;;;;;5035760;28;20431;-60
2021/05/14 01:19:27;;;;;;;4.63;2.90;;;22.80;46.50;;;;;;5032748;28;20025;-59
2021/05/14 01:21:52;;;;;;;4.90;3.15;;;22.80;46.50;;;;;;5046439;28;20029;-59
2021/05/14 01:24:18;;;;;;;5.28;3.17;;;22.80;46.50;;;;;;5048140;28;20083;-60
2021/05/14 01:26:44;;;;;;;4.63;2.80;;;22.80;46.40;;;;;;5049260;28;20025;-60
2021/05/14 01:29:11;;;;;;;5.22;2.90;;;22.80;46.50;;;;;;5049157;28;20488;-62
2021/05/14 01:31:38;;;;;;;5.05;3.10;;;22.80;46.50;;;;;;5046003;28;20195;-60
2021/05/14 01:34:06;;;;;;;4.78;3.08;;;22.70;46.40;;;;;;5028924;28;20040;-60
2021/05/14 01:36:33;;;;;;;4.55;2.72;;;22.70;46.40;;;;;;5027122;28;20033;-60
2021/05/14 01:39:07;;;;;;;4.80;3.05;;;22.70;46.40;;;;;;5044892;28;20379;-60
2021/05/14 01:41:33;;;;;;;4.68;2.97;;;22.70;46.40;;;;;;5047772;28;20062;-61
2021/05/14 01:43:59;;;;;;;4.63;3.05;;;22.70;46.40;;;;;;5041146;28;20097;-60
2021/05/14 01:46:24;;;;;;;4.28;3.20;;;22.70;46.40;;;;;;5029399;28;20559;-60
2021/05/14 01:48:50;;;;;;;4.30;2.90;;;22.70;46.40;;;;;;5035737;28;20072;-61
2021/05/14 01:51:17;;;;;;;4.32;3.00;;;22.70;46.40;;;;;;5039438;28;20021;-60
2021/05/14 01:53:43;;;;;;;4.95;2.92;;;22.70;46.40;;;;;;5030602;28;20041;-60
2021/05/14 01:56:08;;;;;;;3.97;3.00;;;22.70;46.40;;;;;;5043690;28;20056;-60
2021/05/14 01:58:34;;;;;;;4.13;2.90;;;22.70;46.40;;;;;;5043636;28;20091;-62
2021/05/14 02:01:00;;;;;;;4.22;2.83;;;22.70;46.40;;;;;;5043755;28;20041;-61
2021/05/14 02:03:26;;;;;;;5.38;2.83;;;22.70;46.40;;;;;;5029050;28;20044;-61
2021/05/14 02:05:51;;;;;;;4.55;2.95;;;22.70;46.40;;;;;;5029974;28;20079;-59
2021/05/14 02:08:17;;;;;;;4.18;2.78;;;22.70;46.40;;;;;;5030437;28;20053;-61
2021/05/14 02:10:42;;;;;;;4.22;2.90;;;22.70;46.40;;;;;;5028766;28;20021;-60
2021/05/14 02:13:08;;;;;;;4.40;2.92;;;22.70;46.40;;;;;;5048216;28;20424;-60
2021/05/14 02:15:34;;;;;;;4.05;2.60;;;22.70;46.40;;;;;;5038208;28;20056;-61
2021/05/14 02:18:00;;;;;;;4.38;2.90;;;22.70;46.40;;;;;;5044541;28;20052;-61
2021/05/14 02:20:26;;;;;;;3.95;2.78;;;22.70;46.40;;;;;;5048101;28;20199;-61
2021/05/14 02:22:51;;;;;;;3.83;2.50;;;22.70;46.40;;;;;;5046892;28;20029;-61
2021/05/14 02:25:17;;;;;;;4.25;2.67;;;22.70;46.40;;;;;;5029642;28;20117;-61
2021/05/14 02:27:43;;;;;;;4.00;2.63;;;22.60;46.30;;;;;;5036544;28;20029;-60
2021/05/14 02:30:10;;;;;;;4.13;2.83;;;22.60;46.30;;;;;;5033956;28;20131;-60
2021/05/14 02:32:35;;;;;;;3.60;2.70;;;22.60;46.30;;;;;;5047517;28;20079;-60
2021/05/14 02:35:02;;;;;;;3.38;2.47;;;22.60;46.30;;;;;;5047498;28;20030;-60
2021/05/14 02:37:27;;;;;;;4.00;2.50;;;22.60;46.30;;;;;;5035971;28;20026;-61
2021/05/14 02:39:53;;;;;;;4.00;2.70;;;22.60;46.30;;;;;;5028766;28;20041;-62
2021/05/14 02:42:19;;;;;;;3.83;2.58;;;22.60;46.20;;;;;;5042197;28;20071;-60
2021/05/14 02:44:46;;;;;;;3.80;2.58;;;22.60;46.30;;;;;;5046934;28;20032;-59
2021/05/14 02:47:12;;;;;;;4.32;2.42;;;22.60;46.30;;;;;;5048205;28;20063;-60
2021/05/14 02:49:38;;;;;;;3.42;2.45;;;22.60;46.30;;;;;;5042297;28;20049;-60
2021/05/14 02:52:04;;;;;;;3.70;2.50;;;22.60;46.30;;;;;;5047728;28;20151;-60
2021/05/14 02:54:32;;;;;;;3.83;2.58;;;22.60;46.30;;;;;;5047273;28;20552;-61
2021/05/14 02:56:59;;;;;;;3.50;2.38;;;22.60;46.30;;;;;;5044103;28;20075;-61
2021/05/14 02:59:25;;;;;;;4.18;2.58;;;22.60;46.30;;;;;;5042150;28;20535;-62
2021/05/14 03:01:50;;;;;;;6.70;2.83;;;22.60;46.30;;;;;;5031478;28;20048;-61
2021/05/14 03:04:16;;;;;;;3.38;2.42;;;22.60;46.30;;;;;;5027698;28;20030;-60
2021/05/14 03:06:42;;;;;;;3.80;2.33;;;22.60;46.30;;;;;;5028974;28;20034;-60
2021/05/14 03:09:08;;;;;;;3.08;2.20;;;22.60;46.30;;;;;;5037307;28;20033;-59
2021/05/14 03:11:33;;;;;;;3.85;2.50;;;22.60;46.30;;;;;;5038235;28;20037;-61
2021/05/14 03:13:59;;;;;;;3.40;2.20;;;22.60;46.30;;;;;;5026505;28;20037;-61
2021/05/14 03:16:25;;;;;;;3.92;2.78;;;22.60;46.30;;;;;;5043880;28;20033;-60
2021/05/14 03:18:50;;;;;;;3.88;2.58;;;22.60;46.30;;;;;;5048263;28;20028;-59
2021/05/14 03:21:16;;;;;;;4.40;2.70;;;22.60;46.30;;;;;;5039938;28;20061;-60
2021/05/14 03:23:42;;;;;;;3.60;2.47;;;22.50;46.20;;;;;;5039429;28;20037;-62
2021/05/14 03:26:08;;;;;;;4.30;2.70;;;22.60;46.20;;;;;;5037923;28;20031;-60
2021/05/14 03:28:34;;;;;;;3.67;2.33;;;22.50;46.20;;;;;;5045081;28;20033;-63
2021/05/14 03:30:59;;;;;;;3.35;2.35;;;22.50;46.20;;;;;;5033235;28;20028;-60
2021/05/14 03:33:25;;;;;;;3.50;2.20;;;22.50;46.20;;;;;;5047240;28;20028;-62
2021/05/14 03:35:52;;;;;;;3.30;2.20;;;22.50;46.20;;;;;;5045165;28;20119;-60
2021/05/14 03:38:22;;;;;;;3.47;2.15;;;22.50;46.20;;;;;;5047767;28;20108;-60
2021/05/14 03:40:48;;;;;;;3.45;2.35;;;22.50;46.20;;;;;;5030308;28;20088;-61
2021/05/14 03:43:13;;;;;;;3.80;2.40;;;22.50;46.20;;;;;;5046447;28;20032;-60
2021/05/14 03:45:39;;;;;;;3.25;2.08;;;22.50;46.20;;;;;;5046844;28;20064;-60
2021/05/14 03:48:17;;;;;;;3.65;2.33;;;22.50;46.10;;;;;;5047793;28;20063;-61
2021/05/14 03:50:43;;;;;;;3.55;2.30;;;22.50;46.20;;;;;;5044648;28;20521;-62
2021/05/14 03:53:09;;;;;;;3.00;2.00;;;22.50;46.20;;;;;;5047238;28;20079;-62
2021/05/14 03:55:34;;;;;;;3.30;2.35;;;22.50;46.20;;;;;;5045997;28;20091;-61
2021/05/14 03:58:00;;;;;;;2.78;2.10;;;22.50;46.20;;;;;;5040190;28;20028;-60
2021/05/14 04:00:26;;;;;;;4.35;2.25;;;22.50;46.20;;;;;;5039434;28;20057;-60
2021/05/14 04:02:53;;;;;;;3.20;1.98;;;22.50;46.20;;;;;;5030597;28;20633;-62
2021/05/14 04:05:19;;;;;;;3.78;2.53;;;22.50;46.20;;;;;;5047025;28;20055;-60
2021/05/14 04:07:45;;;;;;;3.47;2.08;;;22.50;46.20;;;;;;5042839;28;20108;-62
2021/05/14 04:15:10;;;;;;;3.42;2.42;;;22.50;46.10;;;;;;5046874;28;20055;-60
2021/05/14 04:17:36;;;;;;;2.80;1.98;;;22.50;46.60;;;;;;5044933;28;20363;-60
2021/05/14 04:20:03;;;;;;;3.20;2.25;;;22.40;46.10;;;;;;5047203;28;20367;-60
2021/05/14 04:22:29;;;;;;;3.38;2.20;;;22.40;46.10;;;;;;5036101;28;20041;-60
2021/05/14 04:24:55;;;;;;;3.10;2.00;;;22.40;46.10;;;;;;5027001;28;20419;-61
2021/05/14 04:27:21;;;;;;;3.22;2.00;;;22.40;46.10;;;;;;5031675;28;20025;-59
2021/05/14 04:29:47;;;;;;;3.90;2.50;;;22.40;46.10;;;;;;5041607;28;20024;-60
2021/05/14 04:32:13;;;;;;;3.53;2.33;;;22.40;46.10;;;;;;5039310;28;20110;-62
2021/05/14 04:34:39;;;;;;;3.00;2.10;;;22.40;46.10;;;;;;5039212;28;20040;-60
2021/05/14 04:37:06;;;;;;;3.35;2.10;;;22.40;46.10;;;;;;5033573;28;20116;-61
2021/05/14 04:39:32;;;;;;;2.83;1.95;;;22.30;46.00;;;;;;5045727;28;20150;-60
2021/05/14 04:41:58;;;;;;;3.15;2.10;;;22.40;46.10;;;;;;5046447;28;20025;-59
2021/05/14 04:44:24;;;;;;;3.67;2.10;;;22.40;46.10;;;;;;5046275;28;20121;-60
2021/05/14 04:46:51;;;;;;;3.17;2.10;;;22.40;46.10;;;;;;5042178;28;20108;-60
2021/05/14 04:49:16;;;;;;;3.10;2.10;;;22.40;46.10;;;;;;5041102;28;20036;-61
2021/05/14 04:51:42;;;;;;;3.20;2.00;;;22.30;46.10;;;;;;5044565;28;20396;-61
2021/05/14 04:54:08;;;;;;;3.88;1.92;;;22.30;46.00;;;;;;5044563;28;20033;-60
2021/05/14 04:56:34;;;;;;;3.35;2.22;;;22.30;46.10;;;;;;5045324;28;20029;-60
2021/05/14 04:58:59;;;;;;;3.10;2.20;;;22.30;46.10;;;;;;5046599;28;20043;-60
2021/05/14 05:01:25;;;;;;;2.80;1.85;;;22.30;46.10;;;;;;5039961;28;20056;-61
2021/05/14 05:03:56;;;;;;;3.05;1.92;;;22.30;46.10;;;;;;5037510;28;20030;-61
2021/05/14 05:06:22;;;;;;;3.30;2.10;;;22.30;46.10;;;;;;5033714;28;20494;-61
2021/05/14 05:08:47;;;;;;;2.97;1.85;;;22.30;46.10;;;;;;5044533;28;20073;-60
2021/05/14 05:11:14;;;;;;;2.55;1.70;;;22.30;46.10;;;;;;5045086;28;20476;-59
2021/05/14 05:13:40;;;;;;;3.08;2.10;;;22.30;46.10;;;;;;5038381;28;20146;-62
2021/05/14 05:16:06;;;;;;;3.70;2.17;;;22.30;46.20;;;;;;5043500;28;20068;-60
2021/05/14 05:18:32;;;;;;;3.00;1.95;;;22.30;46.10;;;;;;5047125;28;20435;-60
2021/05/14 05:20:58;;;;;;;2.70;1.80;;;22.30;46.20;;;;;;5048010;28;20020;-61
2021/05/14 05:23:24;;;;;;;3.60;1.90;;;22.30;46.20;;;;;;5047390;28;20021;-60
2021/05/14 05:25:50;;;;;;;3.75;1.85;;;22.30;46.20;;;;;;5039852;28;20034;-61
2021/05/14 05:28:26;;;;;;;2.88;1.85;;;22.30;46.10;;;;;;5046641;28;20033;-61
2021/05/14 05:30:51;;;;;;;3.17;1.75;;;22.30;46.20;;;;;;5038622;28;20037;-60
2021/05/14 05:33:17;;;;;;;3.33;1.92;;;22.30;46.70;;;;;;5024998;28;20104;-62
2021/05/14 05:35:43;;;;;;;3.45;1.55;;;22.30;46.20;;;;;;5030178;28;20570;-60
2021/05/14 05:38:19;;;;;;;2.40;1.67;;;22.30;46.30;;;;;;5039715;28;20112;-62
2021/05/14 05:40:45;;;;;;;2.35;1.77;;;22.30;46.20;;;;;;5044477;28;20025;-61
2021/05/14 05:43:12;;;;;;;2.78;1.67;;;22.40;46.20;;;;;;5037556;28;20032;-63
2021/05/14 05:45:37;;;;;;;2.58;1.60;;;22.40;46.10;;;;;;5029850;28;20039;-62
2021/05/14 05:48:03;;;;;;;3.08;1.80;;;22.50;46.10;;;;;;5035535;28;20039;-60
2021/05/14 05:50:29;;;;;;;3.28;1.77;;;22.40;46.00;;;;;;5030877;28;20089;-60
2021/05/14 05:52:55;;;;;;;3.13;1.90;;;22.50;46.10;;;;;;5029899;28;20075;-62
2021/05/14 05:55:22;;;;;;;2.80;1.50;;;22.50;46.10;;;;;;5028885;28;20018;-61
2021/05/14 05:57:47;;;;;;;2.20;1.58;;;22.50;46.00;;;;;;5029892;28;20089;-62
2021/05/14 06:00:14;;;;;;;3.03;1.70;;;22.50;46.00;;;;;;5040979;28;20101;-60
2021/05/14 06:02:40;;;;;;;2.55;1.63;;;22.60;46.00;;;;;;5028905;28;20048;-62
2021/05/14 06:05:06;;;;;;;2.63;1.55;;;22.60;46.00;;;;;;5029274;28;20364;-60
2021/05/14 06:07:31;;;;;;;2.63;1.65;;;22.60;46.00;;;;;;5029900;28;20021;-62
2021/05/14 06:09:57;;;;;;;2.25;1.70;;;22.60;46.00;;;;;;5030281;28;20090;-60
2021/05/14 06:12:22;;;;;;;2.40;1.70;;;22.60;45.90;;;;;;5039630;28;20080;-61
2021/05/14 06:14:50;;;;;;;2.65;1.52;;;22.70;46.00;;;;;;5027579;28;20449;-62
2021/05/14 06:17:16;;;;;;;2.72;1.70;;;22.70;45.90;;;;;;5049640;28;20142;-60
2021/05/14 06:19:46;;;;;;;2.63;1.63;;;22.70;45.90;;;;;;5049390;28;20755;-60
2021/05/14 06:22:12;;;;;;;3.80;1.63;;;22.70;45.90;;;;;;5029439;28;20028;-61
2021/05/14 06:24:38;;;;;;;2.70;1.65;;;22.70;45.80;;;;;;5046308;28;20028;-60
2021/05/14 06:27:04;;;;;;;3.33;1.50;;;22.70;45.70;;;;;;5047547;28;20033;-62
2021/05/14 06:29:29;;;;;;;2.13;1.48;;;22.80;45.80;;;;;;5046156;28;20032;-62
2021/05/14 06:31:55;;;;;;;2.28;1.40;;;22.80;45.90;;;;;;5028840;28;20034;-60
2021/05/14 06:34:21;;;;;;;3.08;1.65;;;22.80;45.80;;;;;;5027154;28;20100;-61
2021/05/14 06:36:46;;;;;;;3.38;1.52;;;22.80;45.60;;;;;;5034798;28;20033;-60
2021/05/14 06:39:12;;;;;;;2.60;1.65;;;22.90;45.60;;;;;;5029633;28;20104;-61
2021/05/14 06:41:37;;;;;;;2.25;1.50;;;22.90;45.60;;;;;;5037471;28;20039;-61
2021/05/14 06:44:03;;;;;;;2.38;1.58;;;22.90;45.50;;;;;;5033838;28;20100;-61
2021/05/14 06:46:29;;;;;;;2.78;1.60;;;23.00;45.50;;;;;;5028892;28;20033;-60
2021/05/14 06:48:54;;;;;;;2.30;1.58;;;23.00;45.50;;;;;;5031578;28;20569;-62
2021/05/14 06:51:20;;;;;;;2.55;1.50;;;23.00;45.40;;;;;;5044377;28;20040;-61
2021/05/14 06:53:47;;;;;;;1.95;1.40;;;23.00;45.50;;;;;;5042938;28;20128;-62
2021/05/14 06:56:13;;;;;;;2.70;1.55;;;23.00;45.40;;;;;;5029251;28;20264;-62
2021/05/14 06:58:38;;;;;;;2.42;1.30;;;23.00;45.30;;;;;;5048009;28;20192;-63
2021/05/14 07:01:04;;;;;;;2.45;1.40;;;23.10;45.40;;;;;;5038040;28;20035;-63
2021/05/14 07:03:30;;;;;;;1.83;1.20;;;23.10;45.80;;;;;;5043420;28;20026;-60
2021/05/14 07:05:55;;;;;;;2.10;1.35;;;23.10;45.50;;;;;;5044855;28;20044;-60
2021/05/14 07:08:21;;;;;;;2.15;1.20;;;23.20;45.30;;;;;;5047071;28;20115;-60
2021/05/14 07:10:47;;;;;;;2.22;1.25;;;23.20;45.30;;;;;;5045898;28;20029;-60
2021/05/14 07:13:12;;;;;;;3.22;1.40;;;23.20;45.20;;;;;;5046683;28;20035;-60
2021/05/14 07:15:38;;;;;;;2.58;1.40;;;23.30;45.20;;;;;;5047744;28;20364;-61
2021/05/14 07:18:04;;;;;;;1.77;1.20;;;23.30;45.10;;;;;;5048506;28;20021;-62
2021/05/14 07:20:32;;;;;;;1.88;1.20;;;23.30;45.00;;;;;;5041030;28;20035;-62
2021/05/14 07:22:58;;;;;;;2.03;1.23;;;23.30;45.00;;;;;;5044442;28;20063;-60
2021/05/14 07:25:24;;;;;;;2.17;1.30;;;23.30;45.00;;;;;;5044542;28;20098;-60
2021/05/14 07:27:50;;;;;;;2.17;1.40;;;23.40;45.00;;;;;;5047655;28;20043;-60
2021/05/14 07:30:16;;;;;;;1.95;1.20;;;23.40;45.00;;;;;;5039458;28;20029;-61
2021/05/14 07:32:41;;;;;;;2.40;1.48;;;23.40;45.00;;;;;;5042045;28;20037;-60
2021/05/14 07:35:08;;;;;;;2.50;1.30;;;23.40;45.00;;;;;;5040971;28;20043;-61
2021/05/14 07:37:33;;;;;;;1.98;1.20;;;23.40;45.10;;;;;;5039983;28;20048;-60
2021/05/14 07:39:59;;;;;;;2.17;1.25;;;23.50;45.10;;;;;;5035369;28;20045;-59
2021/05/14 07:42:25;;;;;;;1.88;1.33;;;23.50;45.10;;;;;;5045977;28;20107;-61
2021/05/14 07:44:50;;;;;;;2.33;1.35;;;23.50;44.90;;;;;;5046136;28;20468;-60
2021/05/14 07:47:17;;;;;;;1.90;1.20;;;23.60;45.00;;;;;;5039147;28;20035;-62
2021/05/14 07:49:43;;;;;;;2.65;1.48;;;23.60;44.80;;;;;;5048859;28;20025;-63
2021/05/14 07:52:09;;;;;;;1.95;1.40;;;23.60;44.80;;;;;;5046562;28;20045;-60
2021/05/14 07:54:34;;;;;;;2.10;1.40;;;23.60;44.70;;;;;;5039176;28;20117;-61
2021/05/14 07:57:00;;;;;;;2.38;1.40;;;23.60;44.70;;;;;;5036083;28;20041;-61
2021/05/14 07:59:27;;;;;;;2.58;1.48;;;23.60;44.60;;;;;;5031762;28;20629;-61
2021/05/14 08:01:52;;;;;;;3.40;1.60;;;23.60;44.50;;;;;;5035637;28;20349;-62
2021/05/14 08:04:18;;;;;;;2.67;1.60;;;23.70;44.50;;;;;;5046105;28;20020;-61
2021/05/14 08:06:43;;;;;;;2.60;1.33;;;23.70;44.50;;;;;;5046445;28;20065;-61
2021/05/14 08:09:11;;;;;;;3.05;1.50;;;23.70;44.50;;;;;;5047227;28;20524;-62
2021/05/14 08:11:37;;;;;;;1.88;1.20;;;23.70;44.50;;;;;;5035468;28;20076;-60
2021/05/14 08:14:02;;;;;;;2.88;1.30;;;23.70;44.40;;;;;;5038432;28;20464;-61
2021/05/14 08:16:28;;;;;;;2.33;1.30;;;23.80;44.40;;;;;;5034571;28;20152;-60
2021/05/14 08:18:54;;;;;;;1.95;1.30;;;23.80;44.30;;;;;;5046994;28;20052;-61
2021/05/14 08:21:20;;;;;;;1.67;1.20;;;23.80;44.30;;;;;;5034556;28;20529;-61
2021/05/14 08:23:46;;;;;;;2.13;1.20;;;23.80;44.30;;;;;;5040054;28;20128;-60
2021/05/14 08:26:12;;;;;;;2.33;1.50;;;23.80;44.30;;;;;;5025906;28;20056;-62
2021/05/14 08:28:38;;;;;;;1.95;1.40;;;23.90;44.20;;;;;;5028043;28;20116;-59
2021/05/14 08:31:04;;;;;;;2.13;1.33;;;23.90;44.20;;;;;;5039012;28;20048;-62
2021/05/14 08:33:29;;;;;;;2.00;1.40;;;23.90;44.30;;;;;;5031010;28;20041;-62
2021/05/14 08:35:55;;;;;;;2.25;1.25;;;23.90;44.20;;;;;;5047705;28;20065;-60
2021/05/14 08:38:21;;;;;;;2.83;1.20;;;23.90;44.20;;;;;;5053246;28;20471;-62
2021/05/14 08:40:46;;;;;;;2.30;1.30;;;23.90;44.10;;;;;;5036093;28;20037;-62
2021/05/14 08:43:12;;;;;;;2.15;1.40;;;23.90;44.10;;;;;;5048372;28;20013;-61
2021/05/14 08:45:39;;;;;;;2.25;1.20;;;24.00;43.90;;;;;;5050012;28;20022;-61
2021/05/14 08:48:11;;;;;;;1.67;1.17;;;23.90;43.90;;;;;;5047093;28;20030;-62
2021/05/14 08:50:38;;;;;;;2.17;1.20;;;24.00;44.00;;;;;;5059631;28;20033;-63
2021/05/14 08:53:04;;;;;;;2.13;1.30;;;24.00;44.00;;;;;;5047561;28;20025;-64
2021/05/14 08:55:30;;;;;;;1.90;1.10;;;24.00;44.00;;;;;;5050435;28;20037;-62
2021/05/14 08:57:56;;;;;;;2.55;1.33;;;24.00;43.80;;;;;;5054813;28;20032;-61
2021/05/14 09:00:22;;;;;;;1.70;1.10;;;24.00;43.80;;;;;;5049472;28;20336;-62
2021/05/14 09:02:48;;;;;;;3.55;1.35;;;24.00;43.80;;;;;;5050376;28;20029;-60
2021/05/14 09:05:29;;;;;;;2.83;1.23;;;24.10;44.40;;;;;;5059230;28;20033;-62
2021/05/14 09:07:56;;;;;;;1.70;1.10;;;24.00;43.70;;;;;;5055013;28;20025;-62
2021/05/14 09:10:26;;;;;;;2.75;1.17;;;24.10;43.80;;;;;;5052095;28;20087;-63
2021/05/14 09:12:53;;;;;;;2.15;1.20;;;24.00;43.80;;;;;;5053146;28;20368;-62
2021/05/14 09:15:20;;;;;;;2.10;1.30;;;24.10;43.80;;;;;;5042689;28;20055;-61
2021/05/14 09:18:15;;;;;;;2.25;1.10;;;24.10;43.80;;;;;;5053282;28;20078;-62
2021/05/14 09:20:47;;;;;;;1.73;0.95;;;24.10;43.70;;;;;;5051254;28;20108;-63
2021/05/14 09:23:15;;;;;;;2.08;1.20;;;24.10;43.70;;;;;;5050153;28;20048;-58
2021/05/14 09:26:10;;;;;;;2.13;1.23;;;24.10;43.70;;;;;;5056829;28;20029;-61
2021/05/14 09:28:36;;;;;;;1.42;0.93;;;24.10;43.70;;;;;;5051563;28;20025;-60
2021/05/14 09:31:18;;;;;;;1.63;1.10;;;24.10;43.80;;;;;;5052809;28;20048;-60
2021/05/14 09:33:45;;;;;;;2.08;1.30;;;24.10;43.70;;;;;;5052968;28;20017;-62
2021/05/14 09:36:13;;;;;;;2.00;1.10;;;24.10;43.70;;;;;;5053837;28;20032;-62
2021/05/14 09:38:47;;;;;;;2.05;1.20;;;24.10;43.70;;;;;;5044251;28;20053;-63
2021/05/14 09:41:29;;;;;;;1.55;0.95;;;24.10;43.60;;;;;;5045982;28;20024;-60
2021/05/14 09:44:01;;;;;;;2.60;1.17;;;24.10;43.60;;;;;;5029983;28;20029;-61
2021/05/14 09:46:32;;;;;;;2.03;1.02;;;24.10;43.60;;;;;;5038329;28;20043;-60
2021/05/14 09:49:22;;;;;;;1.58;1.00;;;24.10;43.60;;;;;;5042669;28;20086;-60
2021/05/14 09:51:56;;;;;;;1.83;1.15;;;24.10;43.50;;;;;;5037880;28;20059;-61
2021/05/14 09:54:24;;;;;;;1.42;1.00;;;24.20;43.40;;;;;;5032268;28;20033;-60
2021/05/14 09:59:43;;;;;;;2.30;1.00;;;24.20;43.20;;;;;;5041250;28;20098;-60
2021/05/14 10:02:20;;;;;;;1.30;0.88;;;24.20;43.10;;;;;;5037218;28;20037;-64
2021/05/14 10:04:46;;;;;;;1.58;1.00;;;24.20;43.00;;;;;;5040760;28;20100;-62
2021/05/14 10:07:11;;;;;;;1.50;0.95;;;24.20;43.00;;;;;;5042369;28;20211;-60
2021/05/14 10:09:39;;;;;;;2.30;1.00;;;24.20;42.90;;;;;;5048504;28;20036;-59
2021/05/14 10:12:06;;;;;;;1.70;0.93;;;24.30;43.10;;;;;;5037889;28;20045;-61
2021/05/14 10:14:33;;;;;;;1.65;1.08;;;24.20;43.10;;;;;;5043502;28;20036;-59
2021/05/14 10:17:00;;;;;;;1.65;0.80;;;24.30;43.20;;;;;;5035841;28;20160;-63
2021/05/14 10:19:27;;;;;;;1.60;0.95;;;24.30;43.10;;;;;;5031840;28;20527;-61
2021/05/14 10:21:53;;;;;;;2.30;1.00;;;24.30;43.10;;;;;;5043224;28;20587;-60
2021/05/14 10:24:37;;;;;;;1.95;0.90;;;24.30;43.10;;;;;;5035130;28;20038;-64
2021/05/14 10:27:23;;;;;;;2.15;0.85;;;24.30;43.20;;;;;;5046204;28;20024;-61
2021/05/14 10:29:52;;;;;;;1.92;1.00;;;24.30;43.20;;;;;;5044059;28;20029;-61
2021/05/14 10:32:43;;;;;;;1.95;0.95;;;24.30;43.10;;;;;;5044326;28;20041;-60
2021/05/14 10:35:11;;;;;;;1.30;0.90;;;24.30;42.90;;;;;;5047129;28;20037;-62
2021/05/14 10:38:06;;;;;;;2.55;1.13;;;24.30;42.90;;;;;;5048982;28;20107;-60
2021/05/14 10:40:34;;;;;;;1.27;0.90;;;24.30;42.90;;;;;;5037515;28;20064;-62
2021/05/14 10:43:20;;;;;;;1.42;0.95;;;24.30;43.10;;;;;;5035717;28;20437;-59
2021/05/14 10:45:49;;;;;;;1.25;0.70;;;24.30;43.10;;;;;;5026878;28;20163;-60
2021/05/14 10:48:23;;;;;;;1.67;0.90;;;24.30;43.10;;;;;;5037296;28;20033;-59
2021/05/14 10:50:52;;;;;;;0.77;0.70;;;24.40;43.10;;;;;;5044106;28;20044;-62
2021/05/14 10:53:34;;;;;;;1.70;0.80;;;24.40;43.10;;;;;;5048704;28;20116;-61
2021/05/14 10:56:09;;;;;;;1.85;0.80;;;24.40;43.20;;;;;;5046200;28;20033;-60
2021/05/14 10:58:42;;;;;;;1.65;0.85;;;24.40;43.10;;;;;;5040767;28;20037;-60
2021/05/14 11:01:36;;;;;;;2.80;0.82;;;24.40;43.10;;;;;;5032130;28;20052;-62
2021/05/14 11:04:11;;;;;;;1.45;0.70;;;24.40;42.90;;;;;;5039514;28;20021;-60
2021/05/14 11:06:45;;;;;;;0.90;0.70;;;24.40;42.70;;;;;;5044019;28;20025;-60
2021/05/14 11:09:13;;;;;;;1.90;0.70;;;24.50;42.70;;;;;;5032893;28;20082;-62
2021/05/14 11:12:03;;;;;;;1.48;0.77;;;24.50;42.80;;;;;;5028976;28;20025;-59
2021/05/14 11:14:56;;;;;;;1.55;0.70;;;24.50;42.80;;;;;;5042568;28;20457;-60
2021/05/14 11:17:22;;;;;;;1.55;0.80;;;24.50;42.80;;;;;;5027069;28;20147;-60
2021/05/14 11:19:50;;;;;;;7.95;0.98;;;24.50;43.00;;;;;;5032475;28;20024;-59
2021/05/14 11:22:15;;;;;;;1.30;0.80;;;24.50;42.70;;;;;;5042223;28;20060;-61
2021/05/14 11:24:43;;;;;;;2.22;0.60;;;24.50;42.60;;;;;;5037281;28;20037;-60
2021/05/14 11:27:21;;;;;;;2.80;0.75;;;24.50;42.70;;;;;;5043157;28;20104;-61
2021/05/14 11:29:57;;;;;;;1.00;0.70;;;24.60;42.80;;;;;;5045852;28;20449;-60
2021/05/14 11:32:33;;;;;;;2.90;0.80;;;24.50;42.80;;;;;;5038595;28;20128;-62
2021/05/14 11:35:00;;;;;;;1.25;0.75;;;24.50;42.80;;;;;;5040039;28;20372;-60
2021/05/14 11:37:28;;;;;;;1.35;0.80;;;24.50;43.00;;;;;;5039294;28;20460;-60
2021/05/14 11:39:55;;;;;;;2.33;0.95;;;24.50;43.00;;;;;;5038579;28;20137;-59
2021/05/14 11:42:25;;;;;;;3.90;1.10;;;24.50;43.00;;;;;;5031975;28;20085;-60
2021/05/14 11:45:04;;;;;;;2.47;0.80;;;24.50;43.60;;;;;;5039710;28;20021;-62
2021/05/14 11:47:30;;;;;;;1.42;0.90;;;24.50;43.10;;;;;;5036924;28;20318;-61
2021/05/14 11:49:57;;;;;;;1.58;0.90;;;24.50;43.20;;;;;;5035893;28;20048;-61
2021/05/14 11:52:40;;;;;;;1.65;0.77;;;24.50;43.20;;;;;;5044538;28;20044;-60
2021/05/14 11:55:10;;;;;;;1.52;0.75;;;24.50;43.20;;;;;;5042280;28;20437;-60
2021/05/14 11:57:36;;;;;;;1.90;0.70;;;24.50;43.20;;;;;;5039493;28;20025;-59
2021/05/14 12:00:07;;;;;;;2.10;0.93;;;24.50;43.20;;;;;;5040191;28;20032;-62
2021/05/14 12:02:44;;;;;;;1.10;0.70;;;24.40;43.20;;;;;;5044639;28;20067;-61
2021/05/14 12:05:15;;;;;;;1.10;0.70;;;24.40;43.20;;;;;;5034595;28;20045;-61
2021/05/14 12:07:43;;;;;;;3.55;0.75;;;24.40;43.20;;;;;;5047246;28;20027;-62
2021/05/14 12:10:11;;;;;;;1.30;0.60;;;24.40;43.20;;;;;;5042949;28;20030;-61
2021/05/14 12:12:38;;;;;;;1.10;0.80;;;24.40;43.20;;;;;;5038711;28;20079;-60
2021/05/14 12:15:24;;;;;;;2.38;0.80;;;24.40;43.30;;;;;;5035641;28;20029;-63
2021/05/14 12:17:57;;;;;;;3.40;0.82;;;24.30;43.30;;;;;;5036583;28;20035;-59
2021/05/14 12:20:38;;;;;;;1.05;0.73;;;24.40;43.30;;;;;;5031429;28;20074;-60
2021/05/14 12:23:12;;;;;;;2.63;0.90;;;24.30;43.20;;;;;;5036387;28;20531;-62
2021/05/14 12:25:53;;;;;;;1.85;0.80;;;24.30;43.20;;;;;;5030656;28;20047;-60
2021/05/14 12:28:32;;;;;;;2.05;0.77;;;24.30;43.30;;;;;;5045748;28;20071;-59
2021/05/14 12:30:59;;;;;;;1.77;0.80;;;24.30;43.30;;;;;;5030673;28;20062;-61
2021/05/14 12:33:26;;;;;;;1.50;0.80;;;24.30;43.40;;;;;;5040400;28;20033;-59
2021/05/14 12:36:09;;;;;;;1.27;0.70;;;24.30;43.40;;;;;;5037541;28;20029;-60
2021/05/14 12:38:41;;;;;;;1.63;0.70;;;24.30;43.40;;;;;;5035239;28;20033;-59
2021/05/14 12:41:30;;;;;;;1.70;0.80;;;24.30;43.50;;;;;;5045465;28;20215;-63
2021/05/14 12:44:17;;;;;;;1.05;0.70;;;24.20;43.40;;;;;;5043663;28;20127;-59
2021/05/14 12:47:28;;;;;;;2.08;0.65;;;24.20;43.50;;;;;;5031294;28;20037;-61
2021/05/14 12:50:05;;;;;;;2.72;0.80;;;24.30;43.60;;;;;;5042811;28;20464;-62
2021/05/14 12:52:36;;;;;;;1.92;0.70;;;24.20;43.50;;;;;;5042815;28;20475;-59
2021/05/14 12:55:13;;;;;;;1.85;0.70;;;24.20;43.60;;;;;;5036926;28;20396;-61
2021/05/14 12:57:42;;;;;;;0.82;0.60;;;24.20;43.60;;;;;;5043287;28;20153;-60
2021/05/14 13:00:17;;;;;;;1.85;0.80;;;24.20;43.70;;;;;;5042359;28;20066;-61
2021/05/14 13:03:07;;;;;;;2.47;0.90;;;24.20;43.70;;;;;;5033955;28;20037;-59